Time;durP1;ratioP1;P1;durP2;ratioP2;P2;SDS_P1;SDS_P2;PMS_P1;PMS_P2;Temp;Humidity;BMP_temperature;BMP_pressure;BME280_temperature;BME280_humidity;BME280_pressure;Samples;Min_cycle;Max_cycle;Signal;HPM_P1;HPM_P2
2023/10/26 00:00:36;;;;;;;116.67;35.50;;;;;;;8.99;100.00;98459.78;4244234;28;20234;-68
2023/10/26 00:03:03;;;;;;;119.10;33.87;;;;;;;9.13;100.00;98455.41;4254312;28;21825;-70
2023/10/26 00:05:30;;;;;;;120.97;34.20;;;;;;;9.24;100.00;98456.78;4256828;28;20237;-68
2023/10/26 00:07:57;;;;;;;122.73;35.97;;;;;;;9.35;100.00;98463.56;4261279;28;20234;-69
2023/10/26 00:10:23;;;;;;;121.03;35.03;;;;;;;9.25;100.00;98454.94;4248421;28;20424;-70
2023/10/26 00:12:50;;;;;;;101.47;33.27;;;;;;;9.28;100.00;98452.72;4248304;28;22129;-69
2023/10/26 00:15:17;;;;;;;109.80;35.43;;;;;;;9.32;100.00;98448.59;4247947;28;20337;-68
2023/10/26 00:17:43;;;;;;;114.17;34.40;;;;;;;9.39;100.00;98445.97;4249993;28;20226;-70
2023/10/26 00:20:11;;;;;;;115.70;34.13;;;;;;;9.32;100.00;98445.06;4253016;28;20658;-69
2023/10/26 00:22:37;;;;;;;115.87;35.70;;;;;;;9.39;100.00;98440.59;4249945;28;21130;-69
2023/10/26 00:25:05;;;;;;;120.67;35.83;;;;;;;9.41;100.00;98435.81;4244409;28;20223;-69
2023/10/26 00:27:31;;;;;;;116.37;36.17;;;;;;;9.43;100.00;98435.63;4256624;28;20229;-66
2023/10/26 00:29:59;;;;;;;113.53;36.33;;;;;;;9.30;100.00;98429.03;4243914;28;20503;-70
2023/10/26 00:32:26;;;;;;;126.47;36.60;;;;;;;9.32;100.00;98426.16;4245775;28;20367;-68
2023/10/26 00:34:53;;;;;;;136.13;37.23;;;;;;;9.25;100.00;98427.94;4248388;28;20237;-68
2023/10/26 00:37:20;;;;;;;142.80;38.47;;;;;;;9.25;100.00;98412.56;4250349;28;20241;-70
2023/10/26 00:39:46;;;;;;;156.67;40.60;;;;;;;9.16;100.00;98419.94;4243202;28;20222;-66
2023/10/26 00:42:13;;;;;;;152.60;40.93;;;;;;;9.11;100.00;98425.06;4263210;28;20236;-69
2023/10/26 00:44:39;;;;;;;172.77;41.03;;;;;;;9.15;100.00;98422.81;4252822;28;20233;-70
2023/10/26 00:47:06;;;;;;;134.23;36.67;;;;;;;9.28;100.00;98414.06;4248110;28;21726;-68
2023/10/26 00:49:34;;;;;;;150.97;39.97;;;;;;;9.37;100.00;98407.53;4243227;28;20315;-70
2023/10/26 00:52:02;;;;;;;132.93;37.63;;;;;;;9.43;100.00;98411.34;4255730;28;20342;-70
2023/10/26 00:54:31;;;;;;;134.27;37.90;;;;;;;9.63;100.00;98404.28;4241511;28;20443;-67
2023/10/26 00:56:57;;;;;;;139.33;38.90;;;;;;;9.60;100.00;98399.25;4252818;28;20225;-68
2023/10/26 00:59:29;;;;;;;125.47;36.87;;;;;;;9.57;100.00;98401.50;4246467;28;21059;-68
2023/10/26 01:01:57;;;;;;;131.60;36.83;;;;;;;9.36;100.00;98400.44;4249026;28;21004;-72
2023/10/26 01:04:24;;;;;;;122.90;35.87;;;;;;;9.32;100.00;98399.16;4250125;28;20299;-68
2023/10/26 01:06:50;;;;;;;140.60;37.00;;;;;;;9.25;100.00;98395.56;4246066;28;22484;-70
2023/10/26 01:09:17;;;;;;;139.63;35.03;;;;;;;9.35;100.00;98391.53;4252969;28;22301;-67
2023/10/26 01:11:44;;;;;;;131.67;35.77;;;;;;;9.23;100.00;98393.00;4258607;28;20238;-70
2023/10/26 01:14:11;;;;;;;127.43;36.97;;;;;;;9.20;100.00;98394.25;4241411;28;20229;-69
2023/10/26 01:16:38;;;;;;;136.77;38.13;;;;;;;9.16;100.00;98395.66;4249035;28;20236;-69
2023/10/26 01:19:06;;;;;;;126.10;35.77;;;;;;;9.20;100.00;98390.72;4246713;28;20614;-68
2023/10/26 01:21:50;;;;;;;136.50;36.37;;;;;;;9.26;100.00;98398.06;4247869;28;21447;-69
2023/10/26 01:24:18;;;;;;;132.80;36.40;;;;;;;9.28;100.00;98389.75;4255778;28;23654;-66
2023/10/26 01:26:45;;;;;;;128.33;36.47;;;;;;;9.29;100.00;98396.84;4246859;28;20303;-70
2023/10/26 01:29:12;;;;;;;120.67;36.33;;;;;;;9.35;100.00;98393.38;4248253;28;23537;-66
2023/10/26 01:31:38;;;;;;;125.90;36.80;;;;;;;9.36;100.00;98395.88;4247301;28;20729;-67
2023/10/26 01:34:05;;;;;;;122.57;36.97;;;;;;;9.36;100.00;98395.88;4252586;28;20484;-69
2023/10/26 01:36:31;;;;;;;121.23;35.53;;;;;;;9.54;100.00;98394.63;4253437;28;20355;-70
2023/10/26 01:39:00;;;;;;;130.17;38.23;;;;;;;9.54;100.00;98393.78;4228706;28;21168;-69
2023/10/26 01:41:31;;;;;;;122.27;36.00;;;;;;;9.47;100.00;98394.56;4252536;28;20240;-67
2023/10/26 01:44:00;;;;;;;123.03;36.10;;;;;;;9.54;100.00;98389.22;4247780;28;20235;-70
2023/10/26 01:46:26;;;;;;;113.73;35.97;;;;;;;9.60;100.00;98387.63;4243101;28;20246;-65
2023/10/26 01:48:53;;;;;;;112.33;35.33;;;;;;;9.69;100.00;98386.47;4231201;28;20242;-68
2023/10/26 01:51:20;;;;;;;104.93;35.90;;;;;;;9.69;100.00;98383.78;4251287;28;20418;-70
2023/10/26 01:53:46;;;;;;;104.60;33.57;;;;;;;9.73;100.00;98387.75;4253639;28;20226;-68
2023/10/26 01:56:13;;;;;;;96.37;31.57;;;;;;;9.62;100.00;98383.69;4254511;28;20230;-68
2023/10/26 01:58:39;;;;;;;99.07;33.93;;;;;;;9.59;100.00;98372.44;4251306;28;20235;-67
2023/10/26 02:01:06;;;;;;;91.50;33.27;;;;;;;9.68;100.00;98376.69;4249984;28;20450;-67
2023/10/26 02:03:32;;;;;;;100.33;35.17;;;;;;;9.66;100.00;98376.91;4257989;28;20230;-64
2023/10/26 02:05:59;;;;;;;84.23;31.07;;;;;;;9.62;100.00;98378.28;4236449;28;20230;-70
2023/10/26 02:08:26;;;;;;;93.87;31.63;;;;;;;9.65;100.00;98380.63;4244006;28;20311;-70
2023/10/26 02:10:52;;;;;;;92.93;33.27;;;;;;;9.52;100.00;98380.47;4251912;28;22621;-68
2023/10/26 02:13:19;;;;;;;82.60;30.63;;;;;;;9.55;100.00;98380.09;4256176;28;25754;-70
2023/10/26 02:15:45;;;;;;;86.97;32.37;;;;;;;9.50;100.00;98375.25;4247998;28;20306;-66
2023/10/26 02:18:12;;;;;;;94.97;32.87;;;;;;;9.51;100.00;98376.13;4247477;28;20300;-65
2023/10/26 02:20:39;;;;;;;86.23;29.87;;;;;;;9.59;100.00;98381.38;4237504;28;20691;-69
2023/10/26 02:23:05;;;;;;;84.53;32.13;;;;;;;9.69;100.00;98381.06;4236887;28;20288;-67
2023/10/26 02:25:32;;;;;;;87.57;31.97;;;;;;;9.68;100.00;98374.81;4244519;28;20243;-66
2023/10/26 02:27:59;;;;;;;68.77;27.43;;;;;;;9.74;100.00;98375.91;4253037;28;20308;-68
2023/10/26 02:30:26;;;;;;;78.43;28.37;;;;;;;9.76;100.00;98373.88;4247753;28;20305;-69
2023/10/26 02:32:52;;;;;;;78.93;29.60;;;;;;;9.75;100.00;98382.16;4254111;28;20470;-68
2023/10/26 02:35:20;;;;;;;69.33;28.73;;;;;;;9.86;100.00;98373.53;4269099;28;20306;-64
2023/10/26 02:37:48;;;;;;;71.83;27.70;;;;;;;9.70;100.00;98377.34;4249884;28;20551;-66
2023/10/26 02:40:14;;;;;;;67.93;26.90;;;;;;;9.70;100.00;98380.03;4258580;28;20234;-66
2023/10/26 02:42:41;;;;;;;64.40;27.17;;;;;;;9.56;100.00;98380.91;4232623;28;20744;-67
2023/10/26 02:45:08;;;;;;;68.73;27.67;;;;;;;9.46;100.00;98367.72;4248491;28;25486;-68
2023/10/26 02:47:37;;;;;;;64.23;27.17;;;;;;;9.41;100.00;98368.28;4241395;28;21609;-69
2023/10/26 02:50:06;;;;;;;64.40;26.83;;;;;;;9.30;100.00;98369.63;4217728;28;21091;-67
2023/10/26 02:52:33;;;;;;;65.87;27.67;;;;;;;9.35;100.00;98366.38;4251472;28;20238;-65
2023/10/26 02:55:00;;;;;;;57.63;25.80;;;;;;;9.31;100.00;98376.72;4244227;28;21906;-67
2023/10/26 02:57:27;;;;;;;53.17;23.40;;;;;;;9.26;100.00;98365.66;4253203;28;20225;-65
2023/10/26 02:59:53;;;;;;;59.53;24.57;;;;;;;9.17;100.00;98367.63;4245972;28;20241;-67
2023/10/26 03:02:20;;;;;;;59.43;24.03;;;;;;;9.17;100.00;98367.63;4245859;28;20280;-66
2023/10/26 03:04:47;;;;;;;64.30;24.50;;;;;;;9.09;100.00;98369.59;4247337;28;20227;-68
2023/10/26 03:07:20;;;;;;;57.33;24.80;;;;;;;8.99;100.00;98368.00;4253114;28;20251;-66
2023/10/26 03:09:47;;;;;;;53.90;24.70;;;;;;;8.99;100.00;98368.00;4251531;28;23868;-66
2023/10/26 03:12:14;;;;;;;56.73;24.93;;;;;;;8.98;100.00;98358.28;4239587;28;22082;-69
2023/10/26 03:14:40;;;;;;;59.97;24.67;;;;;;;8.98;100.00;98352.88;4250087;28;20322;-66
2023/10/26 03:17:07;;;;;;;55.23;23.70;;;;;;;8.91;100.00;98354.66;4248884;28;20234;-67
2023/10/26 03:19:34;;;;;;;54.60;24.13;;;;;;;9.00;100.00;98342.72;4250373;28;20876;-63
2023/10/26 03:22:01;;;;;;;50.67;23.10;;;;;;;9.01;100.00;98349.78;4246781;28;20383;-69
2023/10/26 03:24:27;;;;;;;54.37;23.87;;;;;;;8.95;100.00;98355.94;4246738;28;20627;-68
2023/10/26 03:26:54;;;;;;;45.97;22.17;;;;;;;8.87;100.00;98364.13;4252290;28;21843;-67
2023/10/26 03:29:21;;;;;;;49.90;21.63;;;;;;;8.74;100.00;98351.31;4247198;28;20238;-66
2023/10/26 03:31:47;;;;;;;45.67;20.87;;;;;;;8.63;100.00;98351.78;4252616;28;20680;-68
2023/10/26 03:34:14;;;;;;;50.23;23.50;;;;;;;8.70;100.00;98344.63;4234921;28;20240;-66
2023/10/26 03:36:40;;;;;;;54.77;23.23;;;;;;;8.61;100.00;98346.56;4230665;28;20245;-67
2023/10/26 03:39:07;;;;;;;49.90;22.67;;;;;;;8.54;100.00;98345.63;4246234;28;20227;-68
2023/10/26 03:41:35;;;;;;;45.77;21.70;;;;;;;8.61;100.00;98340.34;4253449;28;21933;-65
2023/10/26 03:44:01;;;;;;;50.70;23.90;;;;;;;8.46;100.00;98345.72;4250916;28;20323;-66
2023/10/26 03:46:28;;;;;;;46.67;21.70;;;;;;;8.44;100.00;98345.06;4244082;28;20590;-71
2023/10/26 03:48:54;;;;;;;51.40;23.07;;;;;;;8.46;100.00;98349.25;4248740;28;20284;-65
2023/10/26 03:51:21;;;;;;;52.87;23.00;;;;;;;8.30;100.00;98331.38;4249124;28;20989;-69
2023/10/26 03:53:48;;;;;;;62.30;25.80;;;;;;;8.13;100.00;98333.38;4249696;28;20629;-67
2023/10/26 03:56:14;;;;;;;55.70;24.33;;;;;;;8.13;100.00;98321.78;4246039;28;20248;-67
2023/10/26 03:58:41;;;;;;;55.43;23.37;;;;;;;8.14;100.00;98326.97;4247155;28;20238;-66
2023/10/26 04:01:07;;;;;;;49.60;22.83;;;;;;;8.07;100.00;98320.66;4246518;28;20556;-67
2023/10/26 04:03:34;;;;;;;53.13;24.00;;;;;;;8.32;100.00;98317.72;4243849;28;20230;-65
2023/10/26 04:06:00;;;;;;;56.23;25.30;;;;;;;8.25;100.00;98306.81;4244268;28;20229;-67
2023/10/26 04:08:27;;;;;;;51.53;23.70;;;;;;;8.19;100.00;98304.88;4252157;28;20222;-66
2023/10/26 04:10:53;;;;;;;49.43;23.33;;;;;;;8.15;100.00;98296.31;4251052;28;20926;-67
2023/10/26 04:13:20;;;;;;;49.07;23.33;;;;;;;8.13;100.00;98301.06;4245741;28;22476;-67
2023/10/26 04:15:48;;;;;;;56.30;24.07;;;;;;;8.17;100.00;98298.81;4250714;28;20230;-67
2023/10/26 04:18:15;;;;;;;49.17;23.57;;;;;;;8.07;100.00;98294.56;4225406;28;25366;-66
2023/10/26 04:20:42;;;;;;;45.87;22.87;;;;;;;8.13;100.00;98284.88;4235272;28;20238;-66
2023/10/26 04:23:08;;;;;;;50.03;23.70;;;;;;;7.99;100.00;98275.78;4234816;28;20672;-67
2023/10/26 04:25:35;;;;;;;51.97;25.03;;;;;;;7.90;100.00;98272.31;4251483;28;20330;-68
2023/10/26 04:28:19;;;;;;;49.93;23.87;;;;;;;7.97;100.00;98267.03;4251347;28;20230;-66
2023/10/26 04:30:47;;;;;;;55.93;27.00;;;;;;;8.00;100.00;98273.91;4253795;28;20397;-65
2023/10/26 04:33:14;;;;;;;50.33;24.63;;;;;;;7.84;100.00;98272.22;4243153;28;21312;-67
2023/10/26 04:35:42;;;;;;;55.53;24.73;;;;;;;7.75;100.00;98266.91;4245147;28;20411;-68
2023/10/26 04:38:09;;;;;;;52.23;23.47;;;;;;;7.77;100.00;98272.13;4245852;28;20295;-67
2023/10/26 04:40:40;;;;;;;54.50;25.57;;;;;;;7.74;100.00;98265.25;4236043;28;23711;-65
2023/10/26 04:43:07;;;;;;;67.47;30.37;;;;;;;7.71;100.00;98270.16;4244432;28;20310;-66
2023/10/26 04:45:34;;;;;;;59.73;25.80;;;;;;;7.74;100.00;98275.19;4245188;28;20306;-65
2023/10/26 04:48:01;;;;;;;54.90;25.17;;;;;;;7.88;100.00;98278.91;4243017;28;20306;-65
2023/10/26 04:50:30;;;;;;;60.60;25.20;;;;;;;7.89;100.00;98275.19;4241541;28;20230;-67
2023/10/26 04:52:58;;;;;;;69.83;26.20;;;;;;;7.62;100.00;98269.41;4246453;28;20239;-67
2023/10/26 04:55:30;;;;;;;197.90;30.27;;;;;;;7.49;100.00;98266.47;4238602;28;20311;-67
2023/10/26 04:57:58;;;;;;;88.20;26.13;;;;;;;7.44;100.00;98259.78;4249990;28;21649;-69
2023/10/26 05:00:26;;;;;;;95.47;28.10;;;;;;;7.44;100.00;98259.78;4246892;28;20237;-65
2023/10/26 05:02:53;;;;;;;59.50;26.23;;;;;;;7.54;100.00;98253.31;4254859;28;20316;-65
2023/10/26 05:05:19;;;;;;;72.97;27.27;;;;;;;7.51;100.00;98253.66;4260227;28;20952;-68
2023/10/26 05:07:46;;;;;;;57.73;24.57;;;;;;;7.48;100.00;98249.50;4237334;28;20235;-67
2023/10/26 05:10:13;;;;;;;95.50;27.33;;;;;;;7.52;100.00;98249.97;4246091;28;20230;-68
2023/10/26 05:12:40;;;;;;;61.73;26.17;;;;;;;7.59;100.00;98264.38;4255942;28;22341;-68
2023/10/26 05:15:08;;;;;;;116.27;30.07;;;;;;;7.53;100.00;98263.22;4241623;28;20230;-68
2023/10/26 05:17:38;;;;;;;79.70;27.93;;;;;;;7.58;100.00;98262.69;4249998;28;20418;-64
2023/10/26 05:20:08;;;;;;;93.40;28.03;;;;;;;7.47;100.00;98265.84;4254198;28;20230;-67
2023/10/26 05:22:34;;;;;;;71.03;27.43;;;;;;;7.55;100.00;98258.50;4258862;28;21643;-65
2023/10/26 05:25:04;;;;;;;65.20;26.37;;;;;;;7.56;100.00;98259.34;4254999;28;20316;-66
2023/10/26 05:27:32;;;;;;;59.57;24.63;;;;;;;7.59;100.00;98259.81;4248974;28;20262;-70
2023/10/26 05:30:04;;;;;;;67.03;25.30;;;;;;;7.61;100.00;98262.34;4247770;28;20238;-67
2023/10/26 05:32:30;;;;;;;86.83;27.90;;;;;;;7.67;100.00;98260.75;4241298;28;21775;-67
2023/10/26 05:34:57;;;;;;;70.23;27.17;;;;;;;7.66;100.00;98256.41;4229081;28;20266;-67
2023/10/26 05:37:24;;;;;;;63.00;26.53;;;;;;;7.65;100.00;98260.94;4245905;28;20455;-67
2023/10/26 05:39:50;;;;;;;67.63;26.63;;;;;;;7.68;100.00;98257.91;4244354;28;20226;-66
2023/10/26 05:42:17;;;;;;;66.50;27.47;;;;;;;7.67;100.00;98249.97;4250979;28;20243;-66
2023/10/26 05:44:43;;;;;;;63.73;26.93;;;;;;;7.76;100.00;98256.97;4237410;28;23033;-69
2023/10/26 05:47:10;;;;;;;67.83;27.47;;;;;;;7.73;100.00;98254.66;4239625;28;20230;-69
2023/10/26 05:49:37;;;;;;;68.77;28.03;;;;;;;7.72;100.00;98259.19;4250753;28;21007;-66
2023/10/26 05:52:04;;;;;;;60.53;26.57;;;;;;;7.72;100.00;98252.97;4264024;28;20693;-70
2023/10/26 05:54:31;;;;;;;63.20;26.00;;;;;;;7.77;100.00;98255.94;4270924;28;21209;-67
2023/10/26 05:56:58;;;;;;;71.07;30.07;;;;;;;7.85;100.00;98260.44;4256859;28;20284;-66
2023/10/26 05:59:24;;;;;;;59.53;26.07;;;;;;;7.97;100.00;98263.53;4280277;28;22366;-69
2023/10/26 06:01:51;;;;;;;66.90;26.80;;;;;;;7.99;100.00;98261.47;4276797;28;20230;-69
2023/10/26 06:04:18;;;;;;;71.03;28.70;;;;;;;7.99;100.00;98258.75;4288879;28;20285;-70
2023/10/26 06:06:45;;;;;;;69.97;29.10;;;;;;;8.09;100.00;98265.56;4268971;28;21792;-67
2023/10/26 06:09:12;;;;;;;75.33;28.90;;;;;;;8.11;100.00;98254.59;4263407;28;25151;-70
2023/10/26 06:11:39;;;;;;;74.63;29.50;;;;;;;8.20;100.00;98258.84;4283124;28;20330;-70
2023/10/26 06:14:06;;;;;;;79.17;29.93;;;;;;;8.23;100.00;98273.84;4274924;28;20238;-69
2023/10/26 06:16:34;;;;;;;86.70;31.03;;;;;;;8.22;100.00;98264.09;4236022;28;21490;-71
2023/10/26 06:19:01;;;;;;;93.50;31.93;;;;;;;8.14;100.00;98256.91;4254524;28;21201;-69
2023/10/26 06:21:28;;;;;;;82.10;31.17;;;;;;;8.22;100.00;98264.09;4243596;28;21735;-69
2023/10/26 06:23:55;;;;;;;89.17;33.13;;;;;;;8.16;100.00;98245.94;4242506;28;20250;-70
2023/10/26 06:26:23;;;;;;;92.53;32.87;;;;;;;8.21;100.00;98254.31;4254139;28;21228;-68
2023/10/26 06:28:49;;;;;;;87.63;32.23;;;;;;;8.27;100.00;98250.88;4239064;28;22790;-69
2023/10/26 06:31:16;;;;;;;81.60;31.87;;;;;;;8.34;100.00;98250.97;4253776;28;20226;-69
2023/10/26 06:33:43;;;;;;;81.33;31.83;;;;;;;8.36;100.00;98247.06;4245513;28;20247;-72
2023/10/26 06:36:10;;;;;;;78.43;30.27;;;;;;;8.47;100.00;98248.47;4232060;28;20236;-69
2023/10/26 06:38:38;;;;;;;74.93;30.27;;;;;;;8.55;100.00;98247.53;4237242;28;20622;-67
2023/10/26 06:41:06;;;;;;;81.27;30.17;;;;;;;8.62;100.00;98244.91;4233221;28;20243;-71
2023/10/26 06:43:35;;;;;;;72.20;30.20;;;;;;;8.71;100.00;98238.41;4253730;28;22226;-70
2023/10/26 06:46:02;;;;;;;74.43;30.93;;;;;;;8.67;100.00;98243.34;4242453;28;20241;-71
2023/10/26 06:48:29;;;;;;;64.90;29.60;;;;;;;8.70;100.00;98228.63;4237972;28;20246;-69
2023/10/26 06:51:01;;;;;;;66.77;29.50;;;;;;;8.69;100.00;98225.09;4227586;28;20242;-68
2023/10/26 06:53:29;;;;;;;63.00;28.90;;;;;;;8.79;100.00;98221.25;4229164;28;20682;-68
2023/10/26 06:55:56;;;;;;;67.77;30.43;;;;;;;8.85;100.00;98213.25;4243921;28;20314;-70
2023/10/26 06:58:23;;;;;;;68.40;30.53;;;;;;;9.00;100.00;98215.88;4240016;28;20235;-72
2023/10/26 07:00:49;;;;;;;71.83;30.30;;;;;;;9.06;100.00;98210.75;4236987;28;20318;-70
2023/10/26 07:03:19;;;;;;;66.57;28.73;;;;;;;9.01;100.00;98217.53;4239331;28;20231;-70
2023/10/26 07:05:47;;;;;;;63.40;29.83;;;;;;;9.11;100.00;98209.13;4246052;28;21624;-71
2023/10/26 07:08:15;;;;;;;63.30;29.30;;;;;;;9.08;100.00;98205.97;4244285;28;21499;-69
2023/10/26 07:10:42;;;;;;;61.93;29.57;;;;;;;9.12;100.00;98210.78;4237780;28;20237;-71
2023/10/26 07:13:09;;;;;;;60.73;30.07;;;;;;;9.12;100.00;98218.91;4232187;28;20246;-70
2023/10/26 07:15:36;;;;;;;59.00;27.47;;;;;;;9.22;100.00;98217.75;4251509;28;20226;-71
2023/10/26 07:18:04;;;;;;;56.93;28.57;;;;;;;9.13;100.00;98214.34;4239780;28;20718;-73
2023/10/26 07:20:32;;;;;;;58.17;27.83;;;;;;;9.20;100.00;98215.25;4254570;28;20426;-69
2023/10/26 07:22:59;;;;;;;54.93;27.57;;;;;;;9.28;100.00;98212.41;4257701;28;20239;-69
2023/10/26 07:25:26;;;;;;;47.83;25.77;;;;;;;9.31;100.00;98216.59;4253942;28;20269;-69
2023/10/26 07:27:53;;;;;;;48.57;25.73;;;;;;;9.28;100.00;98215.13;4258734;28;20660;-70
2023/10/26 07:30:20;;;;;;;47.70;25.30;;;;;;;9.29;100.00;98210.53;4259193;28;20261;-67
2023/10/26 07:32:47;;;;;;;48.60;25.47;;;;;;;9.30;100.00;98213.03;4245833;28;20250;-69
2023/10/26 07:35:16;;;;;;;47.03;26.57;;;;;;;9.29;100.00;98200.56;4259060;28;22596;-68
2023/10/26 07:37:43;;;;;;;49.20;26.33;;;;;;;9.32;100.00;98200.19;4264087;28;20625;-70
2023/10/26 07:40:32;;;;;;;46.33;26.07;;;;;;;9.40;100.00;98207.31;4253939;28;20279;-68
2023/10/26 07:43:00;;;;;;;47.30;25.83;;;;;;;9.36;100.00;98193.34;4241192;28;20272;-69
2023/10/26 07:45:27;;;;;;;45.43;25.47;;;;;;;9.43;100.00;98209.63;4266316;28;20245;-67
2023/10/26 07:47:56;;;;;;;50.37;25.20;;;;;;;9.49;100.00;98202.59;4250886;28;23636;-70
2023/10/26 07:50:28;;;;;;;48.03;25.67;;;;;;;9.45;100.00;98191.38;4256557;28;20345;-68
2023/10/26 07:52:55;;;;;;;46.33;26.23;;;;;;;9.43;100.00;98189.91;4259463;28;21052;-68
2023/10/26 07:55:22;;;;;;;45.40;26.03;;;;;;;9.48;100.00;98192.84;4251049;28;20226;-71
2023/10/26 07:57:49;;;;;;;48.57;26.80;;;;;;;9.54;100.00;98189.34;4251893;28;20310;-69
2023/10/26 08:00:16;;;;;;;45.80;26.53;;;;;;;9.60;100.00;98187.72;4238497;28;20421;-69
2023/10/26 08:02:42;;;;;;;45.40;26.07;;;;;;;9.64;100.00;98194.41;4245416;28;20310;-72
2023/10/26 08:05:09;;;;;;;45.23;25.23;;;;;;;9.74;100.00;98191.38;4260253;28;20242;-72
2023/10/26 08:07:37;;;;;;;44.07;25.23;;;;;;;9.76;100.00;98181.19;4252179;28;20336;-70
2023/10/26 08:10:04;;;;;;;47.43;26.33;;;;;;;9.79;100.00;98189.72;4254841;28;21846;-69
2023/10/26 08:12:31;;;;;;;44.70;25.30;;;;;;;9.89;100.00;98188.53;4239291;28;20644;-68
2023/10/26 08:14:58;;;;;;;41.73;25.30;;;;;;;9.97;100.00;98188.38;4240750;28;20239;-71
2023/10/26 08:17:45;;;;;;;45.67;25.87;;;;;;;9.90;100.00;98180.22;4263418;28;20579;-73
2023/10/26 08:20:13;;;;;;;44.90;25.33;;;;;;;9.80;100.00;98183.28;4245036;28;20230;-71
2023/10/26 08:22:39;;;;;;;48.27;26.63;;;;;;;9.82;100.00;98191.19;4245130;28;21451;-70
2023/10/26 08:25:06;;;;;;;46.93;27.50;;;;;;;9.77;100.00;98181.00;4255096;28;20945;-71
2023/10/26 08:27:35;;;;;;;45.27;25.83;;;;;;;9.83;100.00;98182.06;4255071;28;20238;-68
2023/10/26 08:30:04;;;;;;;50.40;26.83;;;;;;;9.95;100.00;98179.63;4247296;28;20304;-70
2023/10/26 08:32:31;;;;;;;44.30;25.97;;;;;;;10.01;100.00;98175.31;4251549;28;20347;-68
2023/10/26 08:34:58;;;;;;;42.97;26.43;;;;;;;9.91;100.00;98170.25;4257315;28;20313;-70
2023/10/26 08:37:27;;;;;;;40.40;25.23;;;;;;;9.97;100.00;98169.47;4224936;28;20712;-66
2023/10/26 08:39:54;;;;;;;47.40;26.43;;;;;;;9.93;100.00;98169.03;4263117;28;20264;-67
2023/10/26 08:42:20;;;;;;;43.43;26.43;;;;;;;9.88;100.00;98166.09;4253235;28;20572;-67
2023/10/26 08:44:47;;;;;;;44.03;24.83;;;;;;;9.90;100.00;98153.19;4249536;28;20226;-69
2023/10/26 08:47:17;;;;;;;47.27;24.53;;;;;;;9.86;100.00;98151.13;4243412;28;20241;-68
2023/10/26 08:49:49;;;;;;;48.47;26.80;;;;;;;9.94;100.00;98153.63;4254226;28;22413;-68
2023/10/26 08:52:34;;;;;;;40.43;25.83;;;;;;;9.98;100.00;98150.34;4247230;28;22096;-67
2023/10/26 08:55:01;;;;;;;45.67;26.43;;;;;;;10.14;100.00;98149.19;4245194;28;21502;-66
2023/10/26 08:57:27;;;;;;;48.13;28.67;;;;;;;10.02;100.00;98150.78;4251099;28;20282;-65
2023/10/26 08:59:54;;;;;;;47.80;28.40;;;;;;;10.06;100.00;98151.19;4243320;28;20231;-68
2023/10/26 09:02:21;;;;;;;47.33;27.97;;;;;;;9.99;100.00;98151.19;4247084;28;20239;-68
2023/10/26 09:05:04;;;;;;;46.53;27.07;;;;;;;10.04;100.00;98148.72;4269589;28;20593;-68
2023/10/26 09:07:31;;;;;;;47.10;27.90;;;;;;;10.08;100.00;98144.56;4233930;28;20310;-70
2023/10/26 09:09:58;;;;;;;53.67;26.90;;;;;;;9.99;100.00;98135.78;4255097;28;20237;-67
2023/10/26 09:12:25;;;;;;;50.00;28.63;;;;;;;9.96;100.00;98136.22;4252696;28;20629;-67
2023/10/26 09:15:06;;;;;;;51.13;26.37;;;;;;;9.96;100.00;98141.63;4241403;28;20269;-69
2023/10/26 09:17:33;;;;;;;47.20;27.53;;;;;;;9.87;100.00;98137.41;4233460;28;20315;-67
2023/10/26 09:20:17;;;;;;;46.03;26.67;;;;;;;9.93;100.00;98128.50;4246963;28;20241;-68
2023/10/26 09:22:44;;;;;;;52.07;29.00;;;;;;;9.87;100.00;98121.19;4261652;28;20238;-65
2023/10/26 09:25:14;;;;;;;50.47;28.97;;;;;;;9.83;100.00;98119.91;4266855;28;20237;-68
2023/10/26 09:27:42;;;;;;;45.73;28.00;;;;;;;9.90;100.00;98119.94;4226456;28;23596;-70
2023/10/26 09:30:27;;;;;;;51.67;28.87;;;;;;;9.75;100.00;98118.22;4256057;28;20304;-70
2023/10/26 09:32:56;;;;;;;52.70;29.40;;;;;;;9.68;100.00;98123.56;4249508;28;22801;-68
2023/10/26 09:35:31;;;;;;;55.73;29.60;;;;;;;9.66;100.00;98114.00;4247682;28;20555;-68
2023/10/26 09:37:58;;;;;;;58.90;31.30;;;;;;;9.58;100.00;98117.72;4251518;28;20241;-69
2023/10/26 09:40:26;;;;;;;50.47;28.93;;;;;;;9.63;100.00;98138.72;4264169;28;21330;-69
2023/10/26 09:42:56;;;;;;;51.03;29.93;;;;;;;9.58;100.00;98136.63;4253809;28;21641;-67
2023/10/26 09:45:25;;;;;;;65.37;30.40;;;;;;;9.62;100.00;98129.78;4249028;28;20230;-69
2023/10/26 09:47:52;;;;;;;55.60;28.60;;;;;;;9.45;100.00;98115.75;4269423;28;20375;-66
2023/10/26 09:50:19;;;;;;;56.13;30.30;;;;;;;9.40;100.00;98112.81;4234290;28;20240;-64
2023/10/26 09:52:46;;;;;;;55.83;29.47;;;;;;;9.35;100.00;98110.69;4249730;28;20226;-67
2023/10/26 09:55:14;;;;;;;60.57;31.97;;;;;;;9.35;100.00;98096.34;4250385;28;21741;-67
2023/10/26 09:57:56;;;;;;;60.33;30.27;;;;;;;9.43;100.00;98092.69;4248172;28;20609;-64
2023/10/26 10:00:34;;;;;;;60.77;30.57;;;;;;;9.48;100.00;98087.50;4259475;28;22865;-63
2023/10/26 10:03:17;;;;;;;57.27;30.73;;;;;;;9.55;100.00;98090.25;4248888;28;20343;-66
2023/10/26 10:05:47;;;;;;;54.77;27.63;;;;;;;9.66;100.00;98095.09;4248062;28;20292;-67
2023/10/26 10:08:34;;;;;;;61.03;30.60;;;;;;;9.68;100.00;98090.31;4251211;28;20378;-64
2023/10/26 10:11:17;;;;;;;52.43;28.37;;;;;;;9.75;100.00;98085.78;4254276;28;20409;-68
2023/10/26 10:13:44;;;;;;;54.20;29.47;;;;;;;9.70;100.00;98077.47;4235648;28;20598;-65
2023/10/26 10:16:35;;;;;;;53.07;27.33;;;;;;;9.75;100.00;98076.84;4234032;28;20228;-63
2023/10/26 10:19:19;;;;;;;51.87;27.60;;;;;;;9.63;100.00;98071.19;4257649;28;20235;-65
2023/10/26 10:21:48;;;;;;;50.43;27.37;;;;;;;9.70;100.00;98065.81;4263066;28;20621;-64
2023/10/26 10:24:43;;;;;;;57.03;29.50;;;;;;;9.75;100.00;98076.84;4244466;28;20238;-66
2023/10/26 10:27:15;;;;;;;63.00;29.20;;;;;;;9.66;100.00;98076.19;4274363;28;20277;-67
2023/10/26 10:29:43;;;;;;;53.27;27.40;;;;;;;9.66;100.00;98070.78;4249400;28;20235;-63
2023/10/26 10:32:11;;;;;;;54.73;28.30;;;;;;;9.57;100.00;98067.41;4247771;28;21625;-64
2023/10/26 10:34:45;;;;;;;54.77;26.87;;;;;;;9.62;100.00;98067.63;4244097;28;20250;-67
2023/10/26 10:37:14;;;;;;;60.63;28.43;;;;;;;9.53;100.00;98063.44;4256459;28;20412;-65
2023/10/26 10:40:11;;;;;;;58.30;28.63;;;;;;;9.54;100.00;98067.81;4233974;28;20650;-67
2023/10/26 10:42:39;;;;;;;60.47;29.90;;;;;;;9.53;100.00;98060.72;4253459;28;20286;-66
2023/10/26 10:45:11;;;;;;;65.87;29.00;;;;;;;9.54;100.00;98065.09;4231331;28;21199;-62
2023/10/26 10:47:39;;;;;;;59.23;29.87;;;;;;;9.57;100.00;98067.41;4238527;28;23844;-64
2023/10/26 10:50:25;;;;;;;67.97;29.53;;;;;;;9.54;100.00;98056.19;4258538;28;20336;-63
2023/10/26 10:52:54;;;;;;;62.87;29.50;;;;;;;9.59;100.00;98053.69;4265066;28;20264;-65
2023/10/26 10:55:24;;;;;;;61.27;28.77;;;;;;;9.55;100.00;98057.84;4242716;28;20230;-64
2023/10/26 10:58:02;;;;;;;61.83;28.63;;;;;;;9.54;100.00;98054.28;4253885;28;20623;-66
2023/10/26 11:00:50;;;;;;;56.27;28.93;;;;;;;9.55;100.00;98047.88;4252616;28;20445;-61
2023/10/26 11:03:21;;;;;;;65.90;29.50;;;;;;;9.56;100.00;98051.38;4243837;28;20242;-64
2023/10/26 11:05:48;;;;;;;63.70;30.90;;;;;;;9.61;100.00;98047.06;4235689;28;20223;-64
2023/10/26 11:08:15;;;;;;;64.80;30.70;;;;;;;9.58;100.00;98047.47;4249111;28;20231;-64
2023/10/26 11:10:48;;;;;;;66.30;29.77;;;;;;;9.56;100.00;98051.38;4224859;28;20243;-64
2023/10/26 11:13:19;;;;;;;67.83;32.03;;;;;;;9.56;100.00;98046.00;4225321;28;20251;-63
2023/10/26 11:15:46;;;;;;;67.90;31.57;;;;;;;9.56;100.00;98044.13;4248370;28;20231;-65
2023/10/26 11:18:13;;;;;;;70.13;31.07;;;;;;;9.63;100.00;98046.88;4233329;28;20304;-63
2023/10/26 11:20:42;;;;;;;67.73;30.40;;;;;;;9.64;100.00;98046.66;4209855;28;20227;-62